Time;durP1;ratioP1;P1;durP2;ratioP2;P2;SDS_P1;SDS_P2;PMS_P1;PMS_P2;Temp;Humidity;BMP_temperature;BMP_pressure;BME280_temperature;BME280_humidity;BME280_pressure;Samples;Min_cycle;Max_cycle;Signal;HPM_P1;HPM_P2
2023/11/15 00:01:01;;;;;;;0.22;0.20;;;;;;;;;;10541039;27;20126;-78
2023/11/15 00:06:12;;;;;;;0.20;0.20;;;;;;;;;;10544309;28;20039;-76
2023/11/15 00:11:20;;;;;;;1.75;0.45;;;;;;;;;;10554082;27;20044;-77
2023/11/15 00:16:32;;;;;;;0.40;0.40;;;;;;;;;;10532564;28;20044;-77
2023/11/15 00:21:36;;;;;;;0.65;0.30;;;;;;;;;;10521134;27;20040;-77
2023/11/15 00:26:57;;;;;;;0.30;0.10;;;;;;;;;;10513628;28;20047;-78
2023/11/15 00:32:03;;;;;;;0.28;0.25;;;;;;;;;;10536288;27;20040;-77
2023/11/15 00:37:25;;;;;;;0.57;0.40;;;;;;;;;;10533659;28;20120;-76
2023/11/15 00:42:48;;;;;;;0.50;0.30;;;;;;;;;;10536600;27;20751;-76
2023/11/15 00:47:55;;;;;;;0.50;0.25;;;;;;;;;;10541276;27;20196;-76
2023/11/15 00:53:16;;;;;;;0.52;0.30;;;;;;;;;;10523462;27;20040;-76
2023/11/15 00:58:29;;;;;;;0.17;0.17;;;;;;;;;;10540552;28;20050;-75
2023/11/15 01:03:33;;;;;;;0.63;0.63;;;;;;;;;;10542638;27;20052;-75
2023/11/15 01:08:37;;;;;;;3.72;0.40;;;;;;;;;;10534466;27;20043;-75
2023/11/15 01:13:54;;;;;;;3.25;0.50;;;;;;;;;;10521853;28;20466;-75
2023/11/15 01:19:04;;;;;;;0.43;0.40;;;;;;;;;;10540150;28;20373;-77
2023/11/15 01:29:44;;;;;;;1.20;0.43;;;;;;;;;;10543338;27;20046;-76
2023/11/15 01:34:49;;;;;;;1.55;0.55;;;;;;;;;;10513072;28;20168;-74
2023/11/15 01:39:53;;;;;;;0.30;0.30;;;;;;;;;;10539556;28;20028;-74
2023/11/15 01:45:10;;;;;;;3.45;0.50;;;;;;;;;;10519100;28;20107;-76
2023/11/15 01:50:22;;;;;;;2.45;0.70;;;;;;;;;;10536500;27;20048;-75
2023/11/15 01:55:29;;;;;;;0.47;0.47;;;;;;;;;;10521990;28;20382;-77
2023/11/15 02:00:46;;;;;;;2.13;0.30;;;;;;;;;;10539887;28;20159;-76
2023/11/15 02:06:06;;;;;;;5.20;0.70;;;;;;;;;;10535532;28;20060;-76
2023/11/15 02:11:09;;;;;;;0.57;0.40;;;;;;;;;;10514491;28;20051;-75
2023/11/15 02:16:21;;;;;;;0.57;0.43;;;;;;;;;;10528646;28;20138;-75
2023/11/15 02:21:26;;;;;;;1.80;0.73;;;;;;;;;;10530364;28;20369;-75
2023/11/15 02:26:32;;;;;;;0.40;0.40;;;;;;;;;;10507475;28;20060;-74
2023/11/15 02:31:36;;;;;;;2.05;0.55;;;;;;;;;;10540521;28;20048;-74
2023/11/15 02:36:41;;;;;;;0.45;0.35;;;;;;;;;;10526437;28;20519;-75
2023/11/15 02:41:48;;;;;;;2.83;0.40;;;;;;;;;;10539257;28;20048;-76
2023/11/15 02:46:59;;;;;;;0.77;0.40;;;;;;;;;;10538380;27;20123;-75
2023/11/15 02:52:06;;;;;;;0.57;0.40;;;;;;;;;;10563929;27;20040;-75
2023/11/15 02:57:14;;;;;;;0.40;0.28;;;;;;;;;;10527003;28;20617;-76
2023/11/15 03:02:18;;;;;;;0.93;0.32;;;;;;;;;;10527147;27;20121;-77
2023/11/15 03:07:23;;;;;;;1.10;0.25;;;;;;;;;;10532195;28;20135;-77
2023/11/15 03:12:35;;;;;;;0.30;0.30;;;;;;;;;;10520262;27;20040;-76
2023/11/15 03:17:40;;;;;;;2.63;0.35;;;;;;;;;;10541235;27;20051;-76
2023/11/15 03:22:44;;;;;;;0.80;0.40;;;;;;;;;;10536183;28;20892;-76
2023/11/15 03:27:53;;;;;;;0.93;0.40;;;;;;;;;;10542059;27;20044;-77
2023/11/15 03:32:57;;;;;;;1.33;0.50;;;;;;;;;;10524307;27;20051;-75
2023/11/15 03:38:01;;;;;;;1.00;0.47;;;;;;;;;;10550922;27;20532;-76
2023/11/15 03:43:16;;;;;;;2.05;0.73;;;;;;;;;;10540314;27;20039;-74
2023/11/15 03:48:21;;;;;;;1.30;0.32;;;;;;;;;;10530223;28;20051;-76
2023/11/15 03:53:30;;;;;;;0.40;0.30;;;;;;;;;;10541916;27;20050;-74
2023/11/15 03:58:35;;;;;;;0.95;0.40;;;;;;;;;;10519941;28;20044;-75
2023/11/15 04:03:39;;;;;;;0.52;0.30;;;;;;;;;;10535991;27;20126;-74
2023/11/15 04:08:43;;;;;;;;;;;;;;;;;;10539546;28;20139;-75
2023/11/15 04:13:53;;;;;;;1.00;0.40;;;;;;;;;;10539070;27;20146;-76
2023/11/15 04:18:58;;;;;;;1.23;0.40;;;;;;;;;;10511586;27;20067;-75
2023/11/15 04:24:03;;;;;;;1.65;0.32;;;;;;;;;;10516614;28;20044;-75
2023/11/15 04:29:08;;;;;;;2.80;0.70;;;;;;;;;;10535636;28;20582;-75
2023/11/15 04:34:17;;;;;;;1.33;0.40;;;;;;;;;;10525761;27;20357;-75
2023/11/15 04:39:22;;;;;;;3.60;0.50;;;;;;;;;;10555542;27;20040;-75
2023/11/15 04:44:29;;;;;;;0.80;0.30;;;;;;;;;;10537233;28;20036;-75
2023/11/15 04:49:34;;;;;;;0.55;0.20;;;;;;;;;;10539119;28;20155;-75
2023/11/15 04:54:44;;;;;;;1.25;0.35;;;;;;;;;;10537658;28;20048;-76
2023/11/15 04:59:55;;;;;;;0.98;0.30;;;;;;;;;;10552861;27;20043;-74
2023/11/15 05:05:01;;;;;;;0.30;0.10;;;;;;;;;;10533543;28;20040;-75
2023/11/15 05:10:04;;;;;;;0.98;0.47;;;;;;;;;;10536002;27;20826;-76
2023/11/15 05:15:13;;;;;;;2.80;0.30;;;;;;;;;;10537764;27;20123;-75
2023/11/15 05:20:16;;;;;;;1.55;0.40;;;;;;;;;;10534276;27;20035;-74
2023/11/15 05:25:21;;;;;;;1.05;0.63;;;;;;;;;;10541964;28;20044;-74
2023/11/15 05:30:27;;;;;;;0.70;0.40;;;;;;;;;;10518779;28;20039;-75
2023/11/15 05:35:33;;;;;;;2.35;0.50;;;;;;;;;;10534700;28;20051;-76
2023/11/15 05:40:43;;;;;;;3.00;0.55;;;;;;;;;;10537141;28;20561;-74
2023/11/15 05:45:49;;;;;;;1.63;0.60;;;;;;;;;;10535330;28;20488;-76
2023/11/15 05:50:55;;;;;;;0.47;0.38;;;;;;;;;;10518556;28;20054;-75
2023/11/15 05:55:59;;;;;;;2.08;0.30;;;;;;;;;;10531056;28;20059;-76
2023/11/15 06:01:13;;;;;;;1.05;0.30;;;;;;;;;;10498034;28;20586;-75
2023/11/15 06:06:20;;;;;;;1.23;0.30;;;;;;;;;;10514420;28;20067;-75
2023/11/15 06:11:25;;;;;;;1.65;0.57;;;;;;;;;;10517738;28;20118;-75
2023/11/15 06:16:31;;;;;;;1.83;0.57;;;;;;;;;;10530768;28;20051;-75
2023/11/15 06:21:43;;;;;;;1.42;0.40;;;;;;;;;;10524961;28;20513;-73
2023/11/15 06:26:50;;;;;;;1.08;0.55;;;;;;;;;;10557886;27;20040;-74
2023/11/15 06:32:01;;;;;;;0.85;0.30;;;;;;;;;;10522949;28;20059;-75
2023/11/15 06:37:05;;;;;;;0.75;0.50;;;;;;;;;;10528841;28;20412;-74
2023/11/15 06:42:15;;;;;;;0.80;0.60;;;;;;;;;;10508758;28;20477;-75
2023/11/15 06:47:28;;;;;;;0.50;0.35;;;;;;;;;;10527372;28;20500;-76
2023/11/15 06:52:41;;;;;;;1.02;0.52;;;;;;;;;;10532259;28;20068;-75
2023/11/15 06:57:47;;;;;;;2.70;0.70;;;;;;;;;;10525682;28;20040;-76
2023/11/15 07:03:03;;;;;;;2.30;0.80;;;;;;;;;;10526042;28;20056;-74
2023/11/15 07:08:11;;;;;;;1.55;0.55;;;;;;;;;;10530316;28;20552;-75
2023/11/15 07:13:16;;;;;;;0.60;0.60;;;;;;;;;;10528152;28;20048;-74
2023/11/15 07:18:23;;;;;;;0.50;0.43;;;;;;;;;;10514242;28;20726;-74
2023/11/15 07:23:34;;;;;;;0.45;0.30;;;;;;;;;;10541434;28;20048;-75
2023/11/15 07:29:01;;;;;;;2.22;0.73;;;;;;;;;;10518038;28;20036;-74
2023/11/15 07:34:11;;;;;;;1.08;0.50;;;;;;;;;;10546102;27;20122;-74
2023/11/15 07:39:18;;;;;;;1.60;0.70;;;;;;;;;;10534494;27;20066;-75
2023/11/15 07:44:26;;;;;;;0.55;0.35;;;;;;;;;;10516113;28;20055;-75
2023/11/15 07:49:32;;;;;;;2.55;0.55;;;;;;;;;;10545902;27;20040;-75
2023/11/15 07:54:39;;;;;;;1.92;0.60;;;;;;;;;;10519853;27;20085;-74
2023/11/15 07:59:44;;;;;;;3.22;0.80;;;;;;;;;;10523335;28;20124;-74
2023/11/15 08:04:51;;;;;;;3.78;0.70;;;;;;;;;;10534943;27;21442;-74
2023/11/15 08:09:55;;;;;;;0.63;0.50;;;;;;;;;;10520776;27;20042;-75
2023/11/15 08:15:00;;;;;;;1.38;0.73;;;;;;;;;;10533421;27;20047;-74
2023/11/15 08:20:04;;;;;;;;;;;;;;;;;;10545447;27;20431;-74
2023/11/15 08:25:16;;;;;;;4.40;0.70;;;;;;;;;;10547918;27;19932;-74
2023/11/15 08:30:22;;;;;;;0.95;0.35;;;;;;;;;;10524074;27;20975;-74
2023/11/15 08:35:26;;;;;;;0.75;0.43;;;;;;;;;;10536000;28;20047;-74
2023/11/15 08:40:33;;;;;;;2.42;0.70;;;;;;;;;;10537144;28;20043;-75
2023/11/15 08:45:45;;;;;;;3.70;0.75;;;;;;;;;;10550921;27;20043;-74
2023/11/15 08:50:50;;;;;;;1.48;0.45;;;;;;;;;;10529159;28;20504;-75
2023/11/15 08:56:02;;;;;;;1.55;0.50;;;;;;;;;;10520244;28;20520;-74
2023/11/15 09:01:09;;;;;;;1.45;0.68;;;;;;;;;;10530113;28;20506;-74
2023/11/15 09:06:14;;;;;;;4.28;0.80;;;;;;;;;;10512697;27;20160;-74
2023/11/15 09:11:23;;;;;;;1.08;0.60;;;;;;;;;;10508415;28;20043;-75
2023/11/15 09:16:26;;;;;;;2.75;0.70;;;;;;;;;;10514031;27;20109;-74
2023/11/15 09:21:34;;;;;;;1.30;0.60;;;;;;;;;;10514265;28;20042;-77
2023/11/15 09:26:48;;;;;;;0.63;0.10;;;;;;;;;;10501809;27;20082;-76
2023/11/15 09:31:53;;;;;;;0.57;0.38;;;;;;;;;;10526976;28;20059;-76
2023/11/15 09:37:02;;;;;;;2.97;0.55;;;;;;;;;;10507246;28;20159;-76
2023/11/15 09:42:10;;;;;;;3.15;0.70;;;;;;;;;;10529058;28;20502;-76
2023/11/15 09:47:14;;;;;;;3.83;0.70;;;;;;;;;;10539465;27;20357;-77
2023/11/15 09:52:18;;;;;;;2.13;0.80;;;;;;;;;;10511906;28;20043;-76
2023/11/15 09:57:29;;;;;;;4.88;0.73;;;;;;;;;;10509569;28;20048;-77
2023/11/15 10:02:39;;;;;;;3.33;0.75;;;;;;;;;;10527219;28;20051;-74
2023/11/15 10:07:45;;;;;;;0.88;0.77;;;;;;;;;;10525104;28;20048;-75
2023/11/15 10:12:54;;;;;;;3.00;0.60;;;;;;;;;;10530370;28;20046;-75
2023/11/15 10:18:00;;;;;;;1.63;0.40;;;;;;;;;;10527787;28;20437;-75
2023/11/15 10:23:04;;;;;;;6.80;0.80;;;;;;;;;;10531838;28;20051;-75
2023/11/15 10:28:13;;;;;;;1.63;0.70;;;;;;;;;;10504363;28;20482;-75
2023/11/15 10:33:16;;;;;;;1.85;0.70;;;;;;;;;;10532446;28;20035;-74
2023/11/15 10:38:23;;;;;;;3.00;0.50;;;;;;;;;;10515618;28;20056;-74
2023/11/15 10:43:30;;;;;;;1.20;0.40;;;;;;;;;;10490915;28;20052;-76
2023/11/15 10:48:37;;;;;;;4.00;0.77;;;;;;;;;;10527252;28;20175;-75
2023/11/15 10:53:44;;;;;;;1.63;0.55;;;;;;;;;;10533148;27;20136;-76
2023/11/15 10:58:53;;;;;;;4.22;1.08;;;;;;;;;;10539628;27;20036;-75
2023/11/15 11:03:57;;;;;;;0.77;0.50;;;;;;;;;;10504331;27;20067;-74
2023/11/15 11:09:09;;;;;;;2.80;0.40;;;;;;;;;;10550851;27;20457;-74
2023/11/15 11:14:18;;;;;;;5.53;3.47;;;;;;;;;;10535629;27;20112;-75
2023/11/15 11:19:29;;;;;;;2.55;0.63;;;;;;;;;;10529743;27;20058;-74
2023/11/15 11:24:34;;;;;;;2.92;0.68;;;;;;;;;;10536255;27;20044;-76
2023/11/15 11:35:35;;;;;;;0.40;0.40;;;;;;;;;;10521404;27;21106;-74
2023/11/15 11:40:39;;;;;;;2.05;0.55;;;;;;;;;;10498469;28;20190;-74
2023/11/15 11:45:46;;;;;;;1.05;0.70;;;;;;;;;;10499071;28;20032;-74
2023/11/15 11:50:59;;;;;;;1.70;0.57;;;;;;;;;;10499971;28;20033;-74
2023/11/15 11:56:01;;;;;;;1.00;0.63;;;;;;;;;;10497505;28;20531;-75
2023/11/15 12:01:05;;;;;;;1.77;0.77;;;;;;;;;;10497624;28;20104;-75
2023/11/15 12:06:10;;;;;;;0.98;0.43;;;;;;;;;;10492875;28;20051;-77
2023/11/15 12:11:17;;;;;;;0.60;0.50;;;;;;;;;;10498521;28;20342;-73
2023/11/15 12:16:20;;;;;;;1.67;0.70;;;;;;;;;;10497564;28;20040;-76
2023/11/15 12:21:25;;;;;;;3.35;0.75;;;;;;;;;;10498548;28;20175;-76
2023/11/15 12:26:27;;;;;;;;;;;;;;;;;;10496323;28;20044;-76
2023/11/15 12:31:30;;;;;;;5.38;1.30;;;;;;;;;;10492133;28;19924;-76
2023/11/15 12:36:34;;;;;;;2.55;1.15;;;;;;;;;;10495241;28;20058;-77
2023/11/15 12:41:44;;;;;;;2.13;1.13;;;;;;;;;;10500448;28;20132;-75
2023/11/15 12:46:50;;;;;;;0.38;0.35;;;;;;;;;;10475565;28;20032;-75
2023/11/15 12:51:54;;;;;;;0.95;0.43;;;;;;;;;;10467746;28;20408;-75
2023/11/15 12:57:04;;;;;;;3.20;1.10;;;;;;;;;;10466841;28;20113;-75
2023/11/15 13:02:07;;;;;;;2.75;0.60;;;;;;;;;;10470464;28;20701;-76
2023/11/15 13:07:11;;;;;;;2.50;0.40;;;;;;;;;;10469413;28;20186;-76
2023/11/15 13:12:24;;;;;;;2.50;0.47;;;;;;;;;;10470217;28;20500;-75
2023/11/15 13:17:28;;;;;;;1.88;1.30;;;;;;;;;;10471897;28;20393;-76
2023/11/15 13:22:34;;;;;;;3.20;0.70;;;;;;;;;;10469493;28;20044;-75
2023/11/15 13:27:36;;;;;;;5.45;0.85;;;;;;;;;;10466752;28;20140;-76
2023/11/15 13:32:40;;;;;;;3.67;1.05;;;;;;;;;;10474079;28;20037;-75
2023/11/15 13:37:47;;;;;;;2.13;0.65;;;;;;;;;;10469391;28;20055;-75
2023/11/15 13:42:50;;;;;;;1.60;1.10;;;;;;;;;;10467835;28;20059;-80
2023/11/15 13:47:52;;;;;;;1.23;0.47;;;;;;;;;;10466880;28;20131;-75
2023/11/15 13:52:58;;;;;;;7.35;1.05;;;;;;;;;;10465094;28;20047;-75
2023/11/15 13:58:01;;;;;;;5.47;1.23;;;;;;;;;;10470894;28;20051;-75
2023/11/15 14:03:06;;;;;;;2.30;0.63;;;;;;;;;;10468317;28;20135;-76
2023/11/15 14:08:11;;;;;;;8.10;1.08;;;;;;;;;;10469787;28;20052;-77
2023/11/15 14:13:14;;;;;;;2.08;0.50;;;;;;;;;;10468678;28;20456;-74
2023/11/15 14:18:18;;;;;;;0.98;0.68;;;;;;;;;;10464920;28;20343;-74
2023/11/15 14:23:22;;;;;;;2.58;1.10;;;;;;;;;;10466948;28;20117;-75
2023/11/15 14:28:26;;;;;;;;;;;;;;;;;;10500130;27;20048;-74
2023/11/15 14:33:28;;;;;;;4.60;1.40;;;;;;;;;;10469131;28;19924;-74
2023/11/15 14:38:33;;;;;;;1.23;0.20;;;;;;;;;;10466775;28;20084;-74
2023/11/15 14:43:35;;;;;;;;;;;;;;;;;;10464145;28;20068;-75
2023/11/15 14:48:38;;;;;;;1.50;0.63;;;;;;;;;;10482530;28;19950;-75
2023/11/15 14:53:52;;;;;;;2.45;0.68;;;;;;;;;;10467840;28;20029;-74
2023/11/15 14:58:55;;;;;;;4.13;0.70;;;;;;;;;;10471405;28;20450;-74
2023/11/15 15:04:03;;;;;;;0.65;0.47;;;;;;;;;;10469874;28;20478;-75
2023/11/15 15:09:08;;;;;;;4.82;0.80;;;;;;;;;;10466755;28;20060;-74
2023/11/15 15:14:12;;;;;;;3.22;0.60;;;;;;;;;;10462240;28;20037;-75
2023/11/15 15:19:15;;;;;;;3.05;0.85;;;;;;;;;;10467281;28;22037;-75
2023/11/15 15:24:20;;;;;;;3.42;0.85;;;;;;;;;;10463196;28;20036;-76
2023/11/15 15:29:23;;;;;;;3.42;0.98;;;;;;;;;;10461593;28;20043;-75
2023/11/15 15:34:29;;;;;;;3.67;1.00;;;;;;;;;;10454288;28;20048;-75
2023/11/15 15:39:33;;;;;;;2.03;0.68;;;;;;;;;;10468098;28;20045;-74
2023/11/15 15:44:37;;;;;;;10.52;1.50;;;;;;;;;;10461529;28;20051;-75
2023/11/15 15:49:45;;;;;;;2.53;1.23;;;;;;;;;;10464679;28;20044;-75
2023/11/15 15:54:49;;;;;;;3.10;0.80;;;;;;;;;;10461999;28;20669;-75
2023/11/15 15:59:52;;;;;;;;;;;;;;;;;;10469024;28;20166;-75
2023/11/15 16:04:54;;;;;;;3.22;1.15;;;;;;;;;;10469668;28;19931;-75
2023/11/15 16:10:00;;;;;;;2.50;0.90;;;;;;;;;;10467494;28;20119;-75
2023/11/15 16:15:03;;;;;;;2.67;1.20;;;;;;;;;;10462357;28;20059;-75
2023/11/15 16:20:07;;;;;;;0.63;0.40;;;;;;;;;;10469463;28;20087;-75
2023/11/15 16:25:11;;;;;;;3.28;0.70;;;;;;;;;;10475078;28;20052;-74
2023/11/15 16:30:14;;;;;;;1.90;0.90;;;;;;;;;;10479037;28;20044;-75
2023/11/15 16:35:17;;;;;;;8.02;1.40;;;;;;;;;;10471967;28;20514;-74
2023/11/15 16:40:21;;;;;;;4.03;1.33;;;;;;;;;;10475105;28;20056;-74
2023/11/15 16:45:26;;;;;;;1.63;0.77;;;;;;;;;;10474279;28;20044;-75
2023/11/15 16:50:29;;;;;;;0.80;0.50;;;;;;;;;;10473171;28;20043;-75
2023/11/15 16:55:33;;;;;;;3.03;0.80;;;;;;;;;;10473442;28;20565;-74
2023/11/15 17:00:36;;;;;;;1.15;0.60;;;;;;;;;;10469359;28;20106;-75
2023/11/15 17:05:39;;;;;;;1.83;0.60;;;;;;;;;;10474812;28;20444;-74
2023/11/15 17:10:44;;;;;;;0.90;0.77;;;;;;;;;;10473675;28;20051;-75
2023/11/15 17:15:49;;;;;;;4.00;0.70;;;;;;;;;;10471696;28;20040;-75
2023/11/15 17:20:52;;;;;;;4.22;1.05;;;;;;;;;;10469545;28;20401;-74
2023/11/15 17:25:55;;;;;;;0.70;0.47;;;;;;;;;;10474278;28;20413;-75
2023/11/15 17:30:58;;;;;;;;;;;;;;;;;;10469687;28;20106;-74
2023/11/15 17:36:01;;;;;;;0.93;0.47;;;;;;;;;;10465945;28;19920;-74
2023/11/15 17:41:09;;;;;;;4.72;1.23;;;;;;;;;;10467197;28;20622;-75
2023/11/15 17:46:12;;;;;;;1.98;0.88;;;;;;;;;;10463415;28;20051;-74
2023/11/15 17:51:15;;;;;;;2.15;0.95;;;;;;;;;;10466711;28;20502;-75
2023/11/15 17:56:19;;;;;;;3.85;1.20;;;;;;;;;;10467375;28;20036;-74
2023/11/15 18:01:21;;;;;;;;;;;;;;;;;;10469678;28;20056;-75
2023/11/15 18:06:25;;;;;;;0.50;0.45;;;;;;;;;;10472958;28;19947;-75
2023/11/15 18:11:29;;;;;;;2.58;0.50;;;;;;;;;;10468603;28;20058;-76
2023/11/15 18:16:32;;;;;;;0.82;0.73;;;;;;;;;;10466240;28;20147;-74
2023/11/15 18:21:35;;;;;;;1.90;1.08;;;;;;;;;;10464073;28;20681;-73
2023/11/15 18:26:41;;;;;;;5.68;1.63;;;;;;;;;;10461267;28;20143;-75
2023/11/15 18:31:44;;;;;;;3.45;1.20;;;;;;;;;;10463808;28;20113;-76
2023/11/15 18:36:47;;;;;;;1.75;1.10;;;;;;;;;;10464210;28;20048;-75
2023/11/15 18:41:51;;;;;;;3.17;0.95;;;;;;;;;;10466239;28;20125;-75
2023/11/15 18:46:54;;;;;;;2.17;0.90;;;;;;;;;;10459641;28;20043;-75
2023/11/15 18:51:58;;;;;;;2.20;0.60;;;;;;;;;;10467568;28;20053;-75
2023/11/15 18:57:03;;;;;;;1.50;0.90;;;;;;;;;;10468210;28;20036;-75
2023/11/15 19:02:07;;;;;;;2.72;1.05;;;;;;;;;;10468585;28;20052;-76
2023/11/15 19:07:10;;;;;;;2.60;0.85;;;;;;;;;;10465778;28;20428;-76
2023/11/15 19:12:14;;;;;;;2.77;1.27;;;;;;;;;;10466140;28;20129;-75
2023/11/15 19:17:19;;;;;;;3.85;1.05;;;;;;;;;;10465998;28;20040;-76
2023/11/15 19:22:21;;;;;;;1.33;0.95;;;;;;;;;;10465528;28;20462;-74
2023/11/15 19:27:26;;;;;;;2.75;1.20;;;;;;;;;;10468112;28;20169;-75
2023/11/15 19:32:29;;;;;;;2.25;0.73;;;;;;;;;;10464276;28;20514;-74
2023/11/15 19:37:32;;;;;;;2.13;1.00;;;;;;;;;;10472863;28;20557;-75
2023/11/15 19:42:36;;;;;;;2.80;1.13;;;;;;;;;;10479644;28;20048;-76
2023/11/15 19:47:54;;;;;;;;;;;;;;;;;;;;;
2023/11/15 19:53:06;;;;;;;3.20;1.20;;;;;;;;;;10482185;28;20102;-74
2023/11/15 19:58:13;;;;;;;1.52;0.73;;;;;;;;;;10492226;28;20159;-76
2023/11/15 20:03:17;;;;;;;2.75;1.15;;;;;;;;;;10488653;28;20037;-75
2023/11/15 20:08:23;;;;;;;1.70;1.00;;;;;;;;;;10483939;28;20044;-75
2023/11/15 20:13:31;;;;;;;1.38;0.60;;;;;;;;;;10477882;28;20126;-75
2023/11/15 20:18:46;;;;;;;1.05;0.63;;;;;;;;;;10489020;28;20036;-75
2023/11/15 20:23:52;;;;;;;2.92;0.90;;;;;;;;;;10487376;28;20378;-76
2023/11/15 20:29:09;;;;;;;1.70;0.73;;;;;;;;;;10486338;28;20044;-76
2023/11/15 20:34:17;;;;;;;5.40;1.17;;;;;;;;;;10483210;28;20041;-74
2023/11/15 20:39:29;;;;;;;1.15;0.50;;;;;;;;;;10483824;28;20056;-75
2023/11/15 20:44:34;;;;;;;2.08;1.00;;;;;;;;;;10528424;28;20048;-74
2023/11/15 20:49:41;;;;;;;1.83;0.93;;;;;;;;;;10532357;28;20058;-75
2023/11/15 20:54:48;;;;;;;0.85;0.47;;;;;;;;;;10526579;28;20397;-75
2023/11/15 21:00:00;;;;;;;1.20;0.60;;;;;;;;;;10529153;28;20039;-74
2023/11/15 21:05:10;;;;;;;1.90;0.73;;;;;;;;;;10523626;28;20044;-75
2023/11/15 21:10:18;;;;;;;2.00;0.80;;;;;;;;;;10494017;28;20090;-76
2023/11/15 21:15:25;;;;;;;0.77;0.77;;;;;;;;;;10523488;28;20509;-75
2023/11/15 21:20:36;;;;;;;3.60;0.55;;;;;;;;;;10527693;28;20047;-75
2023/11/15 21:31:06;;;;;;;0.52;0.30;;;;;;;;;;10531034;28;20044;-76
2023/11/15 21:36:13;;;;;;;3.17;0.93;;;;;;;;;;10525202;28;20035;-75
2023/11/15 21:41:18;;;;;;;2.92;0.95;;;;;;;;;;10509181;28;20458;-75
2023/11/15 21:46:32;;;;;;;1.45;1.08;;;;;;;;;;10510277;28;20627;-75
2023/11/15 21:51:39;;;;;;;9.50;1.33;;;;;;;;;;10506195;28;20048;-75
2023/11/15 21:56:47;;;;;;;0.95;0.65;;;;;;;;;;10522347;28;20441;-75
2023/11/15 22:02:11;;;;;;;1.70;0.80;;;;;;;;;;10522222;28;20388;-75
2023/11/15 22:07:17;;;;;;;1.02;0.60;;;;;;;;;;10517324;28;20047;-74
2023/11/15 22:12:23;;;;;;;4.20;1.08;;;;;;;;;;10526347;28;20067;-74
2023/11/15 22:17:30;;;;;;;0.95;0.80;;;;;;;;;;10523884;28;20497;-74
2023/11/15 22:22:48;;;;;;;2.10;0.70;;;;;;;;;;10510864;28;20052;-75
2023/11/15 22:27:55;;;;;;;2.42;0.82;;;;;;;;;;10523181;28;20642;-74
2023/11/15 22:33:04;;;;;;;1.67;0.95;;;;;;;;;;10509149;28;20047;-74
2023/11/15 22:38:12;;;;;;;1.58;1.00;;;;;;;;;;10519618;28;20409;-76
2023/11/15 22:43:19;;;;;;;2.53;0.80;;;;;;;;;;10498930;28;20044;-74
2023/11/15 22:48:25;;;;;;;1.17;0.77;;;;;;;;;;10517859;28;20040;-75
2023/11/15 22:53:34;;;;;;;1.95;0.65;;;;;;;;;;10488503;28;20047;-75
2023/11/15 22:58:42;;;;;;;0.75;0.57;;;;;;;;;;10528901;28;20036;-75
2023/11/15 23:03:51;;;;;;;1.13;0.88;;;;;;;;;;10523240;28;20048;-75
2023/11/15 23:08:59;;;;;;;1.17;0.55;;;;;;;;;;10500727;28;20043;-75
2023/11/15 23:14:05;;;;;;;0.68;0.43;;;;;;;;;;10519840;28;20044;-75
2023/11/15 23:19:11;;;;;;;1.30;0.80;;;;;;;;;;10506130;28;20035;-74
2023/11/15 23:24:16;;;;;;;1.33;0.85;;;;;;;;;;10503521;28;20068;-75
2023/11/15 23:29:22;;;;;;;1.38;0.73;;;;;;;;;;10522597;28;20558;-75
2023/11/15 23:34:27;;;;;;;2.30;0.93;;;;;;;;;;10526899;28;20464;-74
2023/11/15 23:39:37;;;;;;;3.63;0.57;;;;;;;;;;10504513;28;20051;-74
2023/11/15 23:44:44;;;;;;;2.55;0.43;;;;;;;;;;10535486;28;20083;-74
2023/11/15 23:49:50;;;;;;;3.35;1.02;;;;;;;;;;10508353;28;20130;-74
2023/11/15 23:55:03;;;;;;;0.75;0.35;;;;;;;;;;10529644;28;20028;-74
